sensor_id;sensor_type;location;lat;lon;timestamp;P1;durP1;ratioP1;P2;durP2;ratioP2
70312;SDS011;57723;51.698;5.344;2023-12-20T00:01:39;3.00;;;1.10;;
70312;SDS011;57723;51.698;5.344;2023-12-20T00:04:08;6.00;;;1.20;;
70312;SDS011;57723;51.698;5.344;2023-12-20T00:06:37;2.93;;;1.10;;
70312;SDS011;57723;51.698;5.344;2023-12-20T00:09:03;5.75;;;1.30;;
70312;SDS011;57723;51.698;5.344;2023-12-20T00:11:28;2.53;;;1.07;;
70312;SDS011;57723;51.698;5.344;2023-12-20T00:13:54;4.03;;;1.20;;
70312;SDS011;57723;51.698;5.344;2023-12-20T00:16:19;2.00;;;1.00;;
70312;SDS011;57723;51.698;5.344;2023-12-20T00:18:45;2.33;;;1.10;;
70312;SDS011;57723;51.698;5.344;2023-12-20T00:21:11;1.90;;;1.00;;
70312;SDS011;57723;51.698;5.344;2023-12-20T00:23:36;2.15;;;1.10;;
70312;SDS011;57723;51.698;5.344;2023-12-20T00:26:02;4.63;;;1.23;;
70312;SDS011;57723;51.698;5.344;2023-12-20T00:28:28;2.70;;;1.02;;
70312;SDS011;57723;51.698;5.344;2023-12-20T00:30:59;1.83;;;1.00;;
70312;SDS011;57723;51.698;5.344;2023-12-20T00:33:26;1.83;;;1.20;;
70312;SDS011;57723;51.698;5.344;2023-12-20T00:35:51;3.43;;;1.20;;
70312;SDS011;57723;51.698;5.344;2023-12-20T00:38:18;7.10;;;1.50;;
70312;SDS011;57723;51.698;5.344;2023-12-20T00:40:47;3.58;;;1.20;;
70312;SDS011;57723;51.698;5.344;2023-12-20T00:43:12;4.75;;;1.10;;
70312;SDS011;57723;51.698;5.344;2023-12-20T00:45:38;3.83;;;1.00;;
70312;SDS011;57723;51.698;5.344;2023-12-20T00:48:07;3.83;;;0.90;;
70312;SDS011;57723;51.698;5.344;2023-12-20T00:50:33;2.50;;;1.00;;
70312;SDS011;57723;51.698;5.344;2023-12-20T00:52:59;1.60;;;0.83;;
70312;SDS011;57723;51.698;5.344;2023-12-20T00:55:25;3.30;;;1.00;;
70312;SDS011;57723;51.698;5.344;2023-12-20T00:57:52;2.58;;;1.30;;
70312;SDS011;57723;51.698;5.344;2023-12-20T01:00:22;2.70;;;1.03;;
70312;SDS011;57723;51.698;5.344;2023-12-20T01:02:48;2.92;;;1.10;;
70312;SDS011;57723;51.698;5.344;2023-12-20T01:05:15;2.50;;;0.95;;
70312;SDS011;57723;51.698;5.344;2023-12-20T01:07:40;2.75;;;1.00;;
70312;SDS011;57723;51.698;5.344;2023-12-20T01:10:07;4.40;;;1.00;;
70312;SDS011;57723;51.698;5.344;2023-12-20T01:12:35;4.90;;;1.40;;
70312;SDS011;57723;51.698;5.344;2023-12-20T01:15:01;3.00;;;1.00;;
70312;SDS011;57723;51.698;5.344;2023-12-20T01:17:28;2.97;;;0.90;;
70312;SDS011;57723;51.698;5.344;2023-12-20T01:19:54;4.90;;;1.00;;
70312;SDS011;57723;51.698;5.344;2023-12-20T01:22:20;4.78;;;1.48;;
70312;SDS011;57723;51.698;5.344;2023-12-20T01:24:46;1.30;;;1.00;;
70312;SDS011;57723;51.698;5.344;2023-12-20T01:27:12;1.33;;;0.80;;
70312;SDS011;57723;51.698;5.344;2023-12-20T01:29:37;1.70;;;0.95;;
70312;SDS011;57723;51.698;5.344;2023-12-20T01:32:03;4.20;;;0.90;;
70312;SDS011;57723;51.698;5.344;2023-12-20T01:34:29;2.38;;;0.85;;
70312;SDS011;57723;51.698;5.344;2023-12-20T01:36:55;1.67;;;1.00;;
70312;SDS011;57723;51.698;5.344;2023-12-20T01:39:28;3.33;;;1.00;;
70312;SDS011;57723;51.698;5.344;2023-12-20T01:41:54;2.95;;;1.00;;
70312;SDS011;57723;51.698;5.344;2023-12-20T01:44:21;4.80;;;1.20;;
70312;SDS011;57723;51.698;5.344;2023-12-20T01:46:50;2.55;;;0.90;;
70312;SDS011;57723;51.698;5.344;2023-12-20T01:49:16;3.30;;;0.93;;
70312;SDS011;57723;51.698;5.344;2023-12-20T01:51:42;1.48;;;0.90;;
70312;SDS011;57723;51.698;5.344;2023-12-20T01:54:08;3.40;;;0.90;;
70312;SDS011;57723;51.698;5.344;2023-12-20T01:56:34;2.97;;;0.90;;
70312;SDS011;57723;51.698;5.344;2023-12-20T01:59:01;1.98;;;0.95;;
70312;SDS011;57723;51.698;5.344;2023-12-20T02:01:26;3.10;;;0.87;;
70312;SDS011;57723;51.698;5.344;2023-12-20T02:03:53;2.65;;;1.20;;
70312;SDS011;57723;51.698;5.344;2023-12-20T02:06:19;1.63;;;0.90;;
70312;SDS011;57723;51.698;5.344;2023-12-20T02:08:45;1.55;;;0.80;;
70312;SDS011;57723;51.698;5.344;2023-12-20T02:11:11;2.17;;;0.95;;
70312;SDS011;57723;51.698;5.344;2023-12-20T02:13:37;1.60;;;0.90;;
70312;SDS011;57723;51.698;5.344;2023-12-20T02:16:02;2.80;;;0.90;;
70312;SDS011;57723;51.698;5.344;2023-12-20T02:18:28;3.10;;;1.00;;
70312;SDS011;57723;51.698;5.344;2023-12-20T02:20:53;2.03;;;0.80;;
70312;SDS011;57723;51.698;5.344;2023-12-20T02:23:20;2.10;;;0.90;;
70312;SDS011;57723;51.698;5.344;2023-12-20T02:25:45;4.00;;;0.93;;
70312;SDS011;57723;51.698;5.344;2023-12-20T02:28:11;3.40;;;1.00;;
70312;SDS011;57723;51.698;5.344;2023-12-20T02:30:36;3.40;;;0.93;;
70312;SDS011;57723;51.698;5.344;2023-12-20T02:33:07;3.15;;;0.88;;
70312;SDS011;57723;51.698;5.344;2023-12-20T02:35:33;1.83;;;1.00;;
70312;SDS011;57723;51.698;5.344;2023-12-20T02:37:59;1.80;;;0.90;;
70312;SDS011;57723;51.698;5.344;2023-12-20T02:40:24;6.00;;;0.93;;
70312;SDS011;57723;51.698;5.344;2023-12-20T02:42:49;4.90;;;0.90;;
70312;SDS011;57723;51.698;5.344;2023-12-20T02:45:15;3.30;;;1.20;;
70312;SDS011;57723;51.698;5.344;2023-12-20T02:47:40;2.43;;;0.83;;
70312;SDS011;57723;51.698;5.344;2023-12-20T02:50:05;4.17;;;0.97;;
70312;SDS011;57723;51.698;5.344;2023-12-20T02:52:32;2.65;;;0.90;;
70312;SDS011;57723;51.698;5.344;2023-12-20T02:54:58;1.75;;;0.90;;
70312;SDS011;57723;51.698;5.344;2023-12-20T02:57:23;3.13;;;0.90;;
70312;SDS011;57723;51.698;5.344;2023-12-20T02:59:48;2.30;;;0.77;;
70312;SDS011;57723;51.698;5.344;2023-12-20T03:02:14;5.13;;;1.20;;
70312;SDS011;57723;51.698;5.344;2023-12-20T03:04:40;2.90;;;0.80;;
70312;SDS011;57723;51.698;5.344;2023-12-20T03:07:05;1.77;;;0.90;;
70312;SDS011;57723;51.698;5.344;2023-12-20T03:09:30;3.53;;;0.80;;
70312;SDS011;57723;51.698;5.344;2023-12-20T03:11:59;1.48;;;0.70;;
70312;SDS011;57723;51.698;5.344;2023-12-20T03:14:24;3.57;;;0.70;;
70312;SDS011;57723;51.698;5.344;2023-12-20T03:16:50;1.80;;;0.80;;
70312;SDS011;57723;51.698;5.344;2023-12-20T03:19:16;3.45;;;0.90;;
70312;SDS011;57723;51.698;5.344;2023-12-20T03:21:42;2.53;;;0.80;;
70312;SDS011;57723;51.698;5.344;2023-12-20T03:24:07;5.10;;;0.80;;
70312;SDS011;57723;51.698;5.344;2023-12-20T03:26:32;2.00;;;0.80;;
70312;SDS011;57723;51.698;5.344;2023-12-20T03:28:58;2.67;;;0.90;;
70312;SDS011;57723;51.698;5.344;2023-12-20T03:31:24;4.40;;;0.80;;
70312;SDS011;57723;51.698;5.344;2023-12-20T03:33:49;2.83;;;0.87;;
70312;SDS011;57723;51.698;5.344;2023-12-20T03:36:16;6.22;;;0.95;;
70312;SDS011;57723;51.698;5.344;2023-12-20T03:38:42;2.78;;;1.10;;
70312;SDS011;57723;51.698;5.344;2023-12-20T03:41:07;2.97;;;1.03;;
70312;SDS011;57723;51.698;5.344;2023-12-20T03:43:32;2.17;;;0.80;;
70312;SDS011;57723;51.698;5.344;2023-12-20T03:45:57;2.70;;;0.70;;
70312;SDS011;57723;51.698;5.344;2023-12-20T03:48:23;3.90;;;0.77;;
70312;SDS011;57723;51.698;5.344;2023-12-20T03:50:49;6.27;;;1.20;;
70312;SDS011;57723;51.698;5.344;2023-12-20T03:53:14;1.63;;;0.80;;
70312;SDS011;57723;51.698;5.344;2023-12-20T03:55:39;3.23;;;1.27;;
70312;SDS011;57723;51.698;5.344;2023-12-20T03:58:08;3.17;;;0.63;;
70312;SDS011;57723;51.698;5.344;2023-12-20T04:00:33;6.47;;;0.98;;
70312;SDS011;57723;51.698;5.344;2023-12-20T04:02:59;6.10;;;1.23;;
70312;SDS011;57723;51.698;5.344;2023-12-20T04:05:24;5.63;;;1.00;;
70312;SDS011;57723;51.698;5.344;2023-12-20T04:07:49;2.17;;;0.80;;
70312;SDS011;57723;51.698;5.344;2023-12-20T04:10:17;3.38;;;0.90;;
70312;SDS011;57723;51.698;5.344;2023-12-20T04:12:43;3.47;;;0.80;;
70312;SDS011;57723;51.698;5.344;2023-12-20T04:15:08;4.63;;;1.10;;
70312;SDS011;57723;51.698;5.344;2023-12-20T04:17:35;6.35;;;1.08;;
70312;SDS011;57723;51.698;5.344;2023-12-20T04:20:01;4.05;;;1.13;;
70312;SDS011;57723;51.698;5.344;2023-12-20T04:22:26;8.20;;;0.80;;
70312;SDS011;57723;51.698;5.344;2023-12-20T04:24:52;1.93;;;0.90;;
70312;SDS011;57723;51.698;5.344;2023-12-20T04:27:18;3.33;;;1.00;;
70312;SDS011;57723;51.698;5.344;2023-12-20T04:29:43;3.17;;;1.07;;
70312;SDS011;57723;51.698;5.344;2023-12-20T04:32:09;3.33;;;1.00;;
70312;SDS011;57723;51.698;5.344;2023-12-20T04:34:36;3.22;;;1.00;;
70312;SDS011;57723;51.698;5.344;2023-12-20T04:37:01;3.63;;;0.80;;
70312;SDS011;57723;51.698;5.344;2023-12-20T04:39:27;2.78;;;0.90;;
70312;SDS011;57723;51.698;5.344;2023-12-20T04:41:57;6.55;;;1.10;;
70312;SDS011;57723;51.698;5.344;2023-12-20T04:44:22;3.47;;;0.80;;
70312;SDS011;57723;51.698;5.344;2023-12-20T04:46:48;2.93;;;0.87;;
70312;SDS011;57723;51.698;5.344;2023-12-20T04:49:14;3.65;;;0.80;;
70312;SDS011;57723;51.698;5.344;2023-12-20T04:51:40;2.60;;;1.02;;
70312;SDS011;57723;51.698;5.344;2023-12-20T04:54:05;2.60;;;0.80;;
70312;SDS011;57723;51.698;5.344;2023-12-20T04:56:34;3.17;;;1.10;;
70312;SDS011;57723;51.698;5.344;2023-12-20T04:59:05;2.67;;;1.30;;
70312;SDS011;57723;51.698;5.344;2023-12-20T05:01:31;3.47;;;1.00;;
70312;SDS011;57723;51.698;5.344;2023-12-20T05:03:56;13.07;;;1.13;;
70312;SDS011;57723;51.698;5.344;2023-12-20T05:06:22;5.87;;;0.80;;
70312;SDS011;57723;51.698;5.344;2023-12-20T05:08:47;4.03;;;0.80;;
70312;SDS011;57723;51.698;5.344;2023-12-20T05:11:12;3.33;;;0.90;;
70312;SDS011;57723;51.698;5.344;2023-12-20T05:13:40;5.57;;;0.85;;
70312;SDS011;57723;51.698;5.344;2023-12-20T05:16:06;8.90;;;1.00;;
70312;SDS011;57723;51.698;5.344;2023-12-20T05:18:32;4.53;;;1.20;;
70312;SDS011;57723;51.698;5.344;2023-12-20T05:20:59;2.92;;;0.90;;
70312;SDS011;57723;51.698;5.344;2023-12-20T05:23:25;3.13;;;0.73;;
70312;SDS011;57723;51.698;5.344;2023-12-20T05:25:50;6.28;;;1.63;;
70312;SDS011;57723;51.698;5.344;2023-12-20T05:28:15;5.40;;;1.57;;
70312;SDS011;57723;51.698;5.344;2023-12-20T05:30:41;1.77;;;0.70;;
70312;SDS011;57723;51.698;5.344;2023-12-20T05:33:06;3.03;;;1.00;;
70312;SDS011;57723;51.698;5.344;2023-12-20T05:35:32;5.03;;;1.10;;
70312;SDS011;57723;51.698;5.344;2023-12-20T05:37:57;3.83;;;0.80;;
70312;SDS011;57723;51.698;5.344;2023-12-20T05:40:22;3.67;;;1.23;;
70312;SDS011;57723;51.698;5.344;2023-12-20T05:42:48;2.28;;;0.80;;
70312;SDS011;57723;51.698;5.344;2023-12-20T05:45:15;1.58;;;0.60;;
70312;SDS011;57723;51.698;5.344;2023-12-20T05:47:40;2.63;;;0.80;;
70312;SDS011;57723;51.698;5.344;2023-12-20T05:50:06;2.40;;;0.90;;
70312;SDS011;57723;51.698;5.344;2023-12-20T05:52:31;6.90;;;1.02;;
70312;SDS011;57723;51.698;5.344;2023-12-20T05:54:56;2.87;;;0.80;;
70312;SDS011;57723;51.698;5.344;2023-12-20T05:57:26;4.65;;;0.88;;
70312;SDS011;57723;51.698;5.344;2023-12-20T05:59:55;5.60;;;0.88;;
70312;SDS011;57723;51.698;5.344;2023-12-20T06:02:20;2.45;;;0.80;;
70312;SDS011;57723;51.698;5.344;2023-12-20T06:04:45;3.43;;;1.07;;
70312;SDS011;57723;51.698;5.344;2023-12-20T06:07:14;3.27;;;1.40;;
70312;SDS011;57723;51.698;5.344;2023-12-20T06:09:39;4.97;;;0.98;;
70312;SDS011;57723;51.698;5.344;2023-12-20T06:12:05;3.60;;;1.20;;
70312;SDS011;57723;51.698;5.344;2023-12-20T06:14:31;2.38;;;1.50;;
70312;SDS011;57723;51.698;5.344;2023-12-20T06:16:57;3.13;;;1.73;;
70312;SDS011;57723;51.698;5.344;2023-12-20T06:19:23;3.40;;;2.20;;
70312;SDS011;57723;51.698;5.344;2023-12-20T06:21:49;3.50;;;2.30;;
70312;SDS011;57723;51.698;5.344;2023-12-20T06:24:18;4.93;;;2.70;;
70312;SDS011;57723;51.698;5.344;2023-12-20T06:26:43;7.53;;;3.13;;
70312;SDS011;57723;51.698;5.344;2023-12-20T06:29:09;6.72;;;2.95;;
70312;SDS011;57723;51.698;5.344;2023-12-20T06:31:35;9.40;;;2.60;;
70312;SDS011;57723;51.698;5.344;2023-12-20T06:34:00;5.00;;;2.60;;
70312;SDS011;57723;51.698;5.344;2023-12-20T06:36:28;7.22;;;2.95;;
70312;SDS011;57723;51.698;5.344;2023-12-20T06:38:54;8.45;;;1.55;;
70312;SDS011;57723;51.698;5.344;2023-12-20T06:41:19;4.33;;;1.03;;
70312;SDS011;57723;51.698;5.344;2023-12-20T06:43:45;7.67;;;1.00;;
70312;SDS011;57723;51.698;5.344;2023-12-20T06:46:15;5.18;;;1.17;;
70312;SDS011;57723;51.698;5.344;2023-12-20T06:48:41;5.45;;;1.27;;
70312;SDS011;57723;51.698;5.344;2023-12-20T06:51:10;9.73;;;1.10;;
70312;SDS011;57723;51.698;5.344;2023-12-20T06:53:36;6.43;;;1.00;;
70312;SDS011;57723;51.698;5.344;2023-12-20T06:56:01;4.90;;;1.20;;
70312;SDS011;57723;51.698;5.344;2023-12-20T06:58:27;4.32;;;1.02;;
70312;SDS011;57723;51.698;5.344;2023-12-20T07:00:53;7.47;;;1.10;;
70312;SDS011;57723;51.698;5.344;2023-12-20T07:03:18;5.53;;;1.08;;
70312;SDS011;57723;51.698;5.344;2023-12-20T07:05:44;3.17;;;1.13;;
70312;SDS011;57723;51.698;5.344;2023-12-20T07:08:09;3.97;;;0.90;;
70312;SDS011;57723;51.698;5.344;2023-12-20T07:10:35;5.50;;;1.05;;
70312;SDS011;57723;51.698;5.344;2023-12-20T07:13:00;3.67;;;1.20;;
70312;SDS011;57723;51.698;5.344;2023-12-20T07:15:25;4.03;;;1.20;;
70312;SDS011;57723;51.698;5.344;2023-12-20T07:17:53;5.97;;;1.13;;
70312;SDS011;57723;51.698;5.344;2023-12-20T07:20:18;6.03;;;1.23;;
70312;SDS011;57723;51.698;5.344;2023-12-20T07:22:43;4.43;;;1.00;;
70312;SDS011;57723;51.698;5.344;2023-12-20T07:25:09;5.85;;;1.15;;
70312;SDS011;57723;51.698;5.344;2023-12-20T07:27:35;4.82;;;1.20;;
70312;SDS011;57723;51.698;5.344;2023-12-20T07:30:01;4.22;;;1.10;;
70312;SDS011;57723;51.698;5.344;2023-12-20T07:32:28;4.63;;;1.20;;
70312;SDS011;57723;51.698;5.344;2023-12-20T07:34:53;4.47;;;1.00;;
70312;SDS011;57723;51.698;5.344;2023-12-20T07:37:19;4.10;;;0.95;;
70312;SDS011;57723;51.698;5.344;2023-12-20T07:39:46;4.93;;;1.02;;
70312;SDS011;57723;51.698;5.344;2023-12-20T07:42:12;2.33;;;0.80;;
70312;SDS011;57723;51.698;5.344;2023-12-20T07:44:38;7.47;;;1.17;;
70312;SDS011;57723;51.698;5.344;2023-12-20T07:47:03;5.23;;;1.13;;
70312;SDS011;57723;51.698;5.344;2023-12-20T07:49:30;4.70;;;1.33;;
70312;SDS011;57723;51.698;5.344;2023-12-20T07:51:56;4.63;;;1.00;;
70312;SDS011;57723;51.698;5.344;2023-12-20T07:54:21;5.87;;;1.20;;
70312;SDS011;57723;51.698;5.344;2023-12-20T07:56:46;4.70;;;1.30;;
70312;SDS011;57723;51.698;5.344;2023-12-20T07:59:12;5.70;;;1.20;;
70312;SDS011;57723;51.698;5.344;2023-12-20T08:01:37;4.83;;;1.57;;
70312;SDS011;57723;51.698;5.344;2023-12-20T08:04:02;7.43;;;1.43;;
70312;SDS011;57723;51.698;5.344;2023-12-20T08:06:27;4.27;;;1.40;;
70312;SDS011;57723;51.698;5.344;2023-12-20T08:08:53;5.33;;;1.30;;
70312;SDS011;57723;51.698;5.344;2023-12-20T08:11:18;4.57;;;1.10;;
70312;SDS011;57723;51.698;5.344;2023-12-20T08:13:43;5.70;;;0.90;;
70312;SDS011;57723;51.698;5.344;2023-12-20T08:16:10;3.80;;;1.25;;
70312;SDS011;57723;51.698;5.344;2023-12-20T08:18:39;5.43;;;1.30;;
70312;SDS011;57723;51.698;5.344;2023-12-20T08:21:07;6.57;;;0.98;;
70312;SDS011;57723;51.698;5.344;2023-12-20T08:23:33;2.88;;;1.00;;
70312;SDS011;57723;51.698;5.344;2023-12-20T08:26:03;4.55;;;1.10;;
70312;SDS011;57723;51.698;5.344;2023-12-20T08:28:28;6.63;;;1.30;;
70312;SDS011;57723;51.698;5.344;2023-12-20T08:30:53;4.20;;;1.00;;
70312;SDS011;57723;51.698;5.344;2023-12-20T08:33:19;5.90;;;1.40;;
70312;SDS011;57723;51.698;5.344;2023-12-20T08:35:44;5.70;;;1.20;;
70312;SDS011;57723;51.698;5.344;2023-12-20T08:38:09;3.83;;;1.10;;
70312;SDS011;57723;51.698;5.344;2023-12-20T08:40:35;3.73;;;1.00;;
70312;SDS011;57723;51.698;5.344;2023-12-20T08:43:00;3.20;;;1.00;;
70312;SDS011;57723;51.698;5.344;2023-12-20T08:45:26;4.88;;;1.20;;
70312;SDS011;57723;51.698;5.344;2023-12-20T08:47:51;3.60;;;1.33;;
70312;SDS011;57723;51.698;5.344;2023-12-20T08:50:17;4.40;;;1.10;;
70312;SDS011;57723;51.698;5.344;2023-12-20T08:52:43;3.45;;;1.00;;
70312;SDS011;57723;51.698;5.344;2023-12-20T08:55:08;3.53;;;1.07;;
70312;SDS011;57723;51.698;5.344;2023-12-20T08:57:35;4.40;;;1.33;;
70312;SDS011;57723;51.698;5.344;2023-12-20T09:00:01;3.13;;;0.90;;
70312;SDS011;57723;51.698;5.344;2023-12-20T09:02:32;3.38;;;0.95;;
70312;SDS011;57723;51.698;5.344;2023-12-20T09:05:05;2.67;;;0.90;;
70312;SDS011;57723;51.698;5.344;2023-12-20T09:07:31;5.20;;;1.30;;
70312;SDS011;57723;51.698;5.344;2023-12-20T09:09:57;4.72;;;1.13;;
70312;SDS011;57723;51.698;5.344;2023-12-20T09:12:23;5.80;;;1.03;;
70312;SDS011;57723;51.698;5.344;2023-12-20T09:14:49;4.07;;;1.10;;
70312;SDS011;57723;51.698;5.344;2023-12-20T09:17:15;5.78;;;1.10;;
70312;SDS011;57723;51.698;5.344;2023-12-20T09:19:41;3.63;;;1.00;;
70312;SDS011;57723;51.698;5.344;2023-12-20T09:22:09;5.67;;;1.30;;
70312;SDS011;57723;51.698;5.344;2023-12-20T09:24:37;3.63;;;0.90;;
70312;SDS011;57723;51.698;5.344;2023-12-20T09:27:02;2.03;;;0.80;;
70312;SDS011;57723;51.698;5.344;2023-12-20T09:29:28;4.40;;;1.10;;
70312;SDS011;57723;51.698;5.344;2023-12-20T09:31:54;4.03;;;1.30;;
70312;SDS011;57723;51.698;5.344;2023-12-20T09:34:19;5.03;;;1.20;;
70312;SDS011;57723;51.698;5.344;2023-12-20T09:36:45;3.50;;;1.00;;
70312;SDS011;57723;51.698;5.344;2023-12-20T09:39:17;3.75;;;0.93;;
70312;SDS011;57723;51.698;5.344;2023-12-20T09:42:04;2.72;;;0.80;;
70312;SDS011;57723;51.698;5.344;2023-12-20T09:44:30;3.13;;;0.93;;
70312;SDS011;57723;51.698;5.344;2023-12-20T09:46:56;4.10;;;1.07;;
70312;SDS011;57723;51.698;5.344;2023-12-20T09:49:21;2.63;;;0.80;;
70312;SDS011;57723;51.698;5.344;2023-12-20T09:51:47;6.63;;;1.10;;
70312;SDS011;57723;51.698;5.344;2023-12-20T09:54:17;4.13;;;0.90;;
70312;SDS011;57723;51.698;5.344;2023-12-20T09:56:42;2.78;;;0.80;;
70312;SDS011;57723;51.698;5.344;2023-12-20T09:59:11;4.32;;;1.30;;
70312;SDS011;57723;51.698;5.344;2023-12-20T10:01:37;3.60;;;1.10;;
70312;SDS011;57723;51.698;5.344;2023-12-20T10:04:05;2.17;;;0.80;;
70312;SDS011;57723;51.698;5.344;2023-12-20T10:06:33;4.75;;;1.00;;
70312;SDS011;57723;51.698;5.344;2023-12-20T10:08:59;4.20;;;1.00;;
70312;SDS011;57723;51.698;5.344;2023-12-20T10:11:24;3.23;;;0.77;;
70312;SDS011;57723;51.698;5.344;2023-12-20T10:13:50;3.08;;;0.90;;
70312;SDS011;57723;51.698;5.344;2023-12-20T10:16:15;4.22;;;0.95;;
70312;SDS011;57723;51.698;5.344;2023-12-20T10:18:40;4.20;;;0.90;;
70312;SDS011;57723;51.698;5.344;2023-12-20T10:21:06;4.40;;;1.10;;
70312;SDS011;57723;51.698;5.344;2023-12-20T10:23:34;2.67;;;0.88;;
70312;SDS011;57723;51.698;5.344;2023-12-20T10:26:09;3.57;;;1.27;;
70312;SDS011;57723;51.698;5.344;2023-12-20T10:28:40;3.60;;;0.98;;
70312;SDS011;57723;51.698;5.344;2023-12-20T10:31:08;6.07;;;1.40;;
70312;SDS011;57723;51.698;5.344;2023-12-20T10:33:33;4.68;;;1.25;;
70312;SDS011;57723;51.698;5.344;2023-12-20T10:35:59;2.60;;;0.80;;
70312;SDS011;57723;51.698;5.344;2023-12-20T10:38:24;2.63;;;0.85;;
70312;SDS011;57723;51.698;5.344;2023-12-20T10:40:52;2.13;;;0.97;;
70312;SDS011;57723;51.698;5.344;2023-12-20T10:43:19;4.75;;;1.10;;
70312;SDS011;57723;51.698;5.344;2023-12-20T10:45:45;2.93;;;0.90;;
70312;SDS011;57723;51.698;5.344;2023-12-20T10:48:10;2.90;;;0.80;;
70312;SDS011;57723;51.698;5.344;2023-12-20T10:50:37;2.83;;;0.90;;
70312;SDS011;57723;51.698;5.344;2023-12-20T10:53:06;3.92;;;1.05;;
70312;SDS011;57723;51.698;5.344;2023-12-20T10:55:37;3.63;;;1.10;;
70312;SDS011;57723;51.698;5.344;2023-12-20T10:58:09;3.35;;;0.90;;
70312;SDS011;57723;51.698;5.344;2023-12-20T11:00:36;2.80;;;0.98;;
70312;SDS011;57723;51.698;5.344;2023-12-20T11:03:03;3.97;;;1.02;;
70312;SDS011;57723;51.698;5.344;2023-12-20T11:05:31;3.73;;;0.97;;
70312;SDS011;57723;51.698;5.344;2023-12-20T11:08:03;2.33;;;0.80;;
70312;SDS011;57723;51.698;5.344;2023-12-20T11:10:35;2.30;;;0.70;;
70312;SDS011;57723;51.698;5.344;2023-12-20T11:15:30;4.30;;;1.23;;
70312;SDS011;57723;51.698;5.344;2023-12-20T11:17:56;3.63;;;1.00;;
70312;SDS011;57723;51.698;5.344;2023-12-20T11:23:10;7.35;;;1.20;;
70312;SDS011;57723;51.698;5.344;2023-12-20T11:25:48;3.63;;;0.93;;
70312;SDS011;57723;51.698;5.344;2023-12-20T11:28:14;10.18;;;1.20;;
70312;SDS011;57723;51.698;5.344;2023-12-20T11:30:51;8.85;;;1.08;;
70312;SDS011;57723;51.698;5.344;2023-12-20T11:33:17;3.95;;;0.95;;
70312;SDS011;57723;51.698;5.344;2023-12-20T11:35:46;4.60;;;1.10;;
70312;SDS011;57723;51.698;5.344;2023-12-20T11:38:14;4.65;;;0.80;;
70312;SDS011;57723;51.698;5.344;2023-12-20T11:40:43;6.35;;;1.20;;
70312;SDS011;57723;51.698;5.344;2023-12-20T11:43:09;3.80;;;0.80;;
70312;SDS011;57723;51.698;5.344;2023-12-20T11:45:48;3.13;;;0.90;;
70312;SDS011;57723;51.698;5.344;2023-12-20T11:48:15;5.57;;;0.95;;
70312;SDS011;57723;51.698;5.344;2023-12-20T11:50:40;7.10;;;1.00;;
70312;SDS011;57723;51.698;5.344;2023-12-20T11:53:06;5.05;;;1.08;;
70312;SDS011;57723;51.698;5.344;2023-12-20T11:55:39;5.37;;;1.07;;
70312;SDS011;57723;51.698;5.344;2023-12-20T11:58:04;8.10;;;1.40;;
70312;SDS011;57723;51.698;5.344;2023-12-20T12:00:32;4.87;;;1.13;;
70312;SDS011;57723;51.698;5.344;2023-12-20T12:03:00;5.85;;;1.05;;
70312;SDS011;57723;51.698;5.344;2023-12-20T12:05:27;6.13;;;1.08;;
70312;SDS011;57723;51.698;5.344;2023-12-20T12:07:53;4.45;;;0.90;;
70312;SDS011;57723;51.698;5.344;2023-12-20T12:10:18;4.57;;;0.80;;
70312;SDS011;57723;51.698;5.344;2023-12-20T12:12:50;4.07;;;0.93;;
70312;SDS011;57723;51.698;5.344;2023-12-20T12:15:19;6.57;;;0.95;;
70312;SDS011;57723;51.698;5.344;2023-12-20T12:17:44;4.25;;;0.90;;
70312;SDS011;57723;51.698;5.344;2023-12-20T12:20:17;4.88;;;0.88;;
70312;SDS011;57723;51.698;5.344;2023-12-20T12:22:44;3.65;;;0.98;;
70312;SDS011;57723;51.698;5.344;2023-12-20T12:25:12;3.67;;;0.80;;
70312;SDS011;57723;51.698;5.344;2023-12-20T12:27:41;7.38;;;0.88;;
70312;SDS011;57723;51.698;5.344;2023-12-20T12:30:07;3.55;;;0.90;;
70312;SDS011;57723;51.698;5.344;2023-12-20T12:32:33;2.45;;;0.70;;
70312;SDS011;57723;51.698;5.344;2023-12-20T12:34:58;4.33;;;0.90;;
70312;SDS011;57723;51.698;5.344;2023-12-20T12:37:24;3.33;;;0.73;;
70312;SDS011;57723;51.698;5.344;2023-12-20T12:39:52;3.42;;;0.77;;
70312;SDS011;57723;51.698;5.344;2023-12-20T12:42:18;3.58;;;0.90;;
70312;SDS011;57723;51.698;5.344;2023-12-20T12:44:45;3.78;;;0.90;;
70312;SDS011;57723;51.698;5.344;2023-12-20T12:47:13;3.00;;;0.90;;
70312;SDS011;57723;51.698;5.344;2023-12-20T12:49:40;2.17;;;0.70;;
70312;SDS011;57723;51.698;5.344;2023-12-20T12:52:06;2.40;;;0.85;;
70312;SDS011;57723;51.698;5.344;2023-12-20T12:54:32;5.07;;;0.90;;
70312;SDS011;57723;51.698;5.344;2023-12-20T12:57:01;1.95;;;0.80;;
70312;SDS011;57723;51.698;5.344;2023-12-20T12:59:27;2.30;;;0.70;;
70312;SDS011;57723;51.698;5.344;2023-12-20T13:01:55;3.20;;;0.98;;
70312;SDS011;57723;51.698;5.344;2023-12-20T13:04:21;3.60;;;0.93;;
70312;SDS011;57723;51.698;5.344;2023-12-20T13:06:56;1.98;;;0.73;;
70312;SDS011;57723;51.698;5.344;2023-12-20T13:09:22;4.07;;;0.85;;
70312;SDS011;57723;51.698;5.344;2023-12-20T13:11:48;2.88;;;0.65;;
70312;SDS011;57723;51.698;5.344;2023-12-20T13:14:19;2.78;;;0.90;;
70312;SDS011;57723;51.698;5.344;2023-12-20T13:16:45;2.78;;;0.90;;
70312;SDS011;57723;51.698;5.344;2023-12-20T13:19:11;4.38;;;1.08;;
70312;SDS011;57723;51.698;5.344;2023-12-20T13:21:36;3.30;;;0.67;;
70312;SDS011;57723;51.698;5.344;2023-12-20T13:24:02;4.03;;;1.05;;
70312;SDS011;57723;51.698;5.344;2023-12-20T13:26:28;4.72;;;0.93;;
70312;SDS011;57723;51.698;5.344;2023-12-20T13:28:56;3.80;;;0.80;;
70312;SDS011;57723;51.698;5.344;2023-12-20T13:31:21;4.85;;;0.90;;
70312;SDS011;57723;51.698;5.344;2023-12-20T13:33:47;2.50;;;0.80;;
70312;SDS011;57723;51.698;5.344;2023-12-20T13:36:12;2.30;;;0.80;;
70312;SDS011;57723;51.698;5.344;2023-12-20T13:38:38;2.38;;;0.80;;
70312;SDS011;57723;51.698;5.344;2023-12-20T13:41:06;1.88;;;0.80;;
70312;SDS011;57723;51.698;5.344;2023-12-20T13:43:31;2.97;;;0.80;;
70312;SDS011;57723;51.698;5.344;2023-12-20T13:45:58;1.73;;;0.63;;
70312;SDS011;57723;51.698;5.344;2023-12-20T13:48:24;2.92;;;0.80;;
70312;SDS011;57723;51.698;5.344;2023-12-20T13:50:49;3.73;;;1.00;;
70312;SDS011;57723;51.698;5.344;2023-12-20T13:53:18;1.77;;;0.70;;
70312;SDS011;57723;51.698;5.344;2023-12-20T13:55:44;3.05;;;0.80;;
70312;SDS011;57723;51.698;5.344;2023-12-20T13:58:10;2.40;;;0.80;;
70312;SDS011;57723;51.698;5.344;2023-12-20T14:00:35;2.28;;;0.85;;
70312;SDS011;57723;51.698;5.344;2023-12-20T14:03:06;3.08;;;0.80;;
70312;SDS011;57723;51.698;5.344;2023-12-20T14:05:34;2.30;;;1.00;;
70312;SDS011;57723;51.698;5.344;2023-12-20T14:08:00;3.63;;;1.17;;
70312;SDS011;57723;51.698;5.344;2023-12-20T14:10:28;1.63;;;0.53;;
70312;SDS011;57723;51.698;5.344;2023-12-20T14:12:57;2.90;;;0.70;;
70312;SDS011;57723;51.698;5.344;2023-12-20T14:15:22;2.47;;;0.70;;
70312;SDS011;57723;51.698;5.344;2023-12-20T14:17:50;1.95;;;0.80;;
70312;SDS011;57723;51.698;5.344;2023-12-20T14:20:15;2.17;;;0.80;;
70312;SDS011;57723;51.698;5.344;2023-12-20T14:22:41;2.60;;;0.90;;
70312;SDS011;57723;51.698;5.344;2023-12-20T14:25:13;3.40;;;0.90;;
70312;SDS011;57723;51.698;5.344;2023-12-20T14:27:39;3.60;;;0.70;;
70312;SDS011;57723;51.698;5.344;2023-12-20T14:30:05;2.50;;;0.70;;
70312;SDS011;57723;51.698;5.344;2023-12-20T14:32:34;1.43;;;0.50;;
70312;SDS011;57723;51.698;5.344;2023-12-20T14:35:03;4.10;;;0.70;;
70312;SDS011;57723;51.698;5.344;2023-12-20T14:37:29;2.72;;;0.90;;
70312;SDS011;57723;51.698;5.344;2023-12-20T14:39:58;3.10;;;0.73;;
70312;SDS011;57723;51.698;5.344;2023-12-20T14:42:26;3.53;;;0.70;;
70312;SDS011;57723;51.698;5.344;2023-12-20T14:44:51;4.43;;;0.98;;
70312;SDS011;57723;51.698;5.344;2023-12-20T14:47:25;2.47;;;0.70;;
70312;SDS011;57723;51.698;5.344;2023-12-20T14:49:51;2.60;;;0.85;;